createdAt,value
2018-07-20T00:00:16.274Z,62.16
2018-07-20T00:00:41.829Z,62.26
2018-07-20T00:01:07.418Z,62.26
2018-07-20T00:01:32.997Z,62.16
2018-07-20T00:01:58.597Z,62.26
2018-07-20T00:02:24.150Z,62.26
2018-07-20T00:02:49.739Z,62.26
2018-07-20T00:03:15.322Z,62.36
2018-07-20T00:03:40.906Z,62.01
2018-07-20T00:04:06.495Z,62.16
2018-07-20T00:04:32.064Z,61.98
2018-07-20T00:04:57.631Z,61.88
2018-07-20T00:05:23.205Z,62.07
2018-07-20T00:05:48.790Z,62.07
2018-07-20T00:06:14.357Z,62.36
2018-07-20T00:06:39.933Z,62.07
2018-07-20T00:07:05.498Z,61.78
2018-07-20T00:07:31.061Z,61.98
2018-07-20T00:07:56.631Z,62.07
2018-07-20T00:08:22.199Z,62.07
2018-07-20T00:08:47.793Z,61.88
2018-07-20T00:09:13.367Z,61.88
2018-07-20T00:09:38.939Z,62.07
2018-07-20T00:10:04.517Z,61.88
2018-07-20T00:10:30.086Z,61.88
2018-07-20T00:10:55.671Z,61.49
2018-07-20T00:11:21.260Z,61.58
2018-07-20T00:11:46.841Z,61.58
2018-07-20T00:12:12.413Z,61.68
2018-07-20T00:12:37.991Z,61.58
2018-07-20T00:13:03.569Z,61.49
2018-07-20T00:13:29.154Z,61.78
2018-07-20T00:13:54.722Z,61.49
2018-07-20T00:14:20.295Z,61.49
2018-07-20T00:14:45.884Z,61.58
2018-07-20T00:15:11.452Z,61.49
2018-07-20T00:15:37.022Z,61.58
2018-07-20T00:16:02.600Z,61.49
2018-07-20T00:16:28.191Z,61.49
2018-07-20T00:16:53.757Z,61.49
2018-07-20T00:17:19.329Z,61.68
2018-07-20T00:17:44.894Z,61.39
2018-07-20T00:18:10.466Z,61.49
2018-07-20T00:18:36.038Z,61.58
2018-07-20T00:19:01.606Z,61.68
2018-07-20T00:19:27.180Z,61.39
2018-07-20T00:19:52.761Z,61.58
2018-07-20T00:20:19.087Z,61.58
2018-07-20T00:20:43.884Z,61.58
2018-07-20T00:21:09.463Z,61.49
2018-07-20T00:21:35.040Z,61.58
2018-07-20T00:22:00.609Z,61.68
2018-07-20T00:22:26.174Z,61.58
2018-07-20T00:22:51.747Z,61.58
2018-07-20T00:23:17.319Z,61.49
2018-07-20T00:23:42.916Z,61.49
2018-07-20T00:24:08.487Z,61.68
2018-07-20T00:24:34.059Z,61.68
2018-07-20T00:24:59.636Z,61.88
2018-07-20T00:25:25.212Z,61.78
2018-07-20T00:25:50.813Z,61.88
2018-07-20T00:26:16.368Z,61.78
2018-07-20T00:26:41.935Z,61.98
2018-07-20T00:27:07.508Z,61.78
2018-07-20T00:27:33.079Z,61.49
2018-07-20T00:27:58.642Z,61.58
2018-07-20T00:28:24.211Z,61.68
2018-07-20T00:28:49.787Z,61.78
2018-07-20T00:29:15.355Z,61.39
2018-07-20T00:29:40.925Z,61.68
2018-07-20T00:30:06.499Z,61.49
2018-07-20T00:30:32.065Z,61.68
2018-07-20T00:30:57.641Z,61.78
2018-07-20T00:31:23.217Z,61.68
2018-07-20T00:31:48.792Z,61.68
2018-07-20T00:32:14.363Z,61.78
2018-07-20T00:32:39.989Z,61.88
2018-07-20T00:33:05.573Z,61.88
2018-07-20T00:33:31.160Z,61.88
2018-07-20T00:33:56.737Z,61.78
2018-07-20T00:34:22.302Z,61.78
2018-07-20T00:34:47.880Z,61.88
2018-07-20T00:35:13.452Z,61.78
2018-07-20T00:35:39.022Z,61.49
2018-07-20T00:36:04.607Z,61.78
2018-07-20T00:36:30.197Z,61.78
2018-07-20T00:36:55.776Z,61.78
2018-07-20T00:37:21.379Z,61.88
2018-07-20T00:37:46.939Z,61.78
2018-07-20T00:38:12.524Z,61.78
2018-07-20T00:38:38.098Z,61.78
2018-07-20T00:39:03.682Z,61.68
2018-07-20T00:39:29.240Z,62.07
2018-07-20T00:39:54.812Z,61.78
2018-07-20T00:40:20.384Z,61.68
2018-07-20T00:40:45.958Z,61.78
2018-07-20T00:41:11.572Z,61.88
2018-07-20T00:41:37.093Z,61.78
2018-07-20T00:42:02.659Z,61.98
2018-07-20T00:42:28.222Z,62.07
2018-07-20T00:42:53.798Z,61.98
2018-07-20T00:43:19.373Z,61.88
2018-07-20T00:43:44.949Z,61.88
2018-07-20T00:44:10.535Z,61.98
2018-07-20T00:44:36.113Z,61.88
2018-07-20T00:45:01.698Z,61.68
2018-07-20T00:45:27.264Z,61.68
2018-07-20T00:45:52.832Z,61.68
2018-07-20T00:46:18.415Z,61.68
2018-07-20T00:46:43.989Z,61.78
2018-07-20T00:47:09.568Z,61.68
2018-07-20T00:47:35.132Z,61.39
2018-07-20T00:48:00.704Z,61.49
2018-07-20T00:48:26.277Z,61.78
2018-07-20T00:48:51.853Z,61.58
2018-07-20T00:49:17.432Z,61.68
2018-07-20T00:49:43.005Z,61.68
2018-07-20T00:50:08.583Z,61.61
2018-07-20T00:50:34.149Z,61.58
2018-07-20T00:50:59.713Z,61.68
2018-07-20T00:51:25.286Z,61.58
2018-07-20T00:51:50.847Z,61.68
2018-07-20T00:52:16.402Z,61.58
2018-07-20T00:52:42.007Z,61.58
2018-07-20T00:53:07.559Z,61.39
2018-07-20T00:53:33.125Z,61.39
2018-07-20T00:53:58.684Z,61.78
2018-07-20T00:54:24.251Z,61.68
2018-07-20T00:54:49.828Z,61.68
2018-07-20T00:55:15.419Z,61.68
2018-07-20T00:55:40.989Z,61.49
2018-07-20T00:56:06.598Z,61.49
2018-07-20T00:56:32.166Z,61.39
2018-07-20T00:56:57.729Z,61.39
2018-07-20T00:57:23.306Z,61.19
2018-07-20T00:57:48.906Z,61.39
2018-07-20T00:58:14.480Z,61.39
2018-07-20T00:58:40.058Z,61.39
2018-07-20T00:59:05.646Z,61.39
2018-07-20T00:59:31.203Z,61.58
2018-07-20T00:59:56.775Z,61.58
2018-07-20T01:00:22.356Z,61.58
2018-07-20T01:00:47.949Z,61.49
2018-07-20T01:01:13.501Z,61.58
2018-07-20T01:01:39.105Z,61.68
2018-07-20T01:02:04.685Z,61.58
2018-07-20T01:02:30.275Z,61.58
2018-07-20T01:02:55.857Z,61.68
2018-07-20T01:03:21.477Z,61.58
2018-07-20T01:03:47.091Z,61.58
2018-07-20T01:04:12.668Z,61.49
2018-07-20T01:04:38.243Z,61.49
2018-07-20T01:05:03.805Z,61.58
2018-07-20T01:05:29.435Z,61.39
2018-07-20T01:05:54.969Z,61.58
2018-07-20T01:06:20.555Z,61.58
2018-07-20T01:06:46.109Z,61.58
2018-07-20T01:07:11.688Z,61.39
2018-07-20T01:07:37.279Z,61.78
2018-07-20T01:08:02.852Z,61.58
2018-07-20T01:08:28.408Z,61.68
2018-07-20T01:08:53.988Z,61.68
2018-07-20T01:09:19.565Z,61.78
2018-07-20T01:09:45.134Z,61.58
2018-07-20T01:10:10.706Z,61.68
2018-07-20T01:10:36.278Z,61.78
2018-07-20T01:11:01.853Z,61.88
2018-07-20T01:11:27.423Z,61.78
2018-07-20T01:11:53.001Z,61.68
2018-07-20T01:12:18.577Z,61.78
2018-07-20T01:12:44.132Z,61.58
2018-07-20T01:13:09.705Z,61.19
2018-07-20T01:13:35.285Z,61.39
2018-07-20T01:14:00.873Z,61.19
2018-07-20T01:14:26.446Z,61.1
2018-07-20T01:14:52.013Z,61.1
2018-07-20T01:15:17.595Z,61.1
2018-07-20T01:15:43.176Z,61.29
2018-07-20T01:16:08.743Z,61.1
2018-07-20T01:16:34.319Z,61.39
2018-07-20T01:16:59.891Z,61.29
2018-07-20T01:17:25.469Z,61.39
2018-07-20T01:17:51.045Z,61.39
2018-07-20T01:18:16.614Z,61
2018-07-20T01:18:42.172Z,61.1
2018-07-20T01:19:07.767Z,61
2018-07-20T01:19:33.317Z,61.1
2018-07-20T01:19:58.919Z,61.39
2018-07-20T01:20:24.476Z,61.29
2018-07-20T01:20:50.044Z,61.39
2018-07-20T01:21:15.609Z,61.29
2018-07-20T01:21:41.209Z,61.39
2018-07-20T01:22:06.793Z,61.39
2018-07-20T01:22:32.365Z,61.19
2018-07-20T01:22:57.931Z,61
2018-07-20T01:23:23.525Z,61
2018-07-20T01:23:49.095Z,60.91
2018-07-20T01:24:14.675Z,61
2018-07-20T01:24:40.247Z,60.91
2018-07-20T01:25:05.814Z,61
2018-07-20T01:25:31.393Z,61.29
2018-07-20T01:25:56.964Z,61.19
2018-07-20T01:26:22.541Z,61.1
2018-07-20T01:26:48.099Z,61.19
2018-07-20T01:27:13.675Z,61.29
2018-07-20T01:27:39.328Z,60.91
2018-07-20T01:28:04.883Z,60.91
2018-07-20T01:28:30.454Z,61.29
2018-07-20T01:28:56.015Z,61
2018-07-20T01:29:21.607Z,60.81
2018-07-20T01:29:47.181Z,61.1
2018-07-20T01:30:12.759Z,61
2018-07-20T01:30:38.299Z,60.91
2018-07-20T01:31:03.881Z,61
2018-07-20T01:31:29.434Z,61
2018-07-20T01:31:55.010Z,60.91
2018-07-20T01:32:20.595Z,61.1
2018-07-20T01:32:46.183Z,61
2018-07-20T01:33:11.753Z,61
2018-07-20T01:33:37.339Z,61
2018-07-20T01:34:02.907Z,61
2018-07-20T01:34:28.485Z,61
2018-07-20T01:34:54.054Z,61.1
2018-07-20T01:35:19.635Z,61.1
2018-07-20T01:35:45.213Z,61
2018-07-20T01:36:10.799Z,61
2018-07-20T01:36:36.366Z,61
2018-07-20T01:37:01.958Z,61.1
2018-07-20T01:37:27.526Z,61
2018-07-20T01:37:53.095Z,61.19
2018-07-20T01:38:18.657Z,61.1
2018-07-20T01:38:44.243Z,61
2018-07-20T01:39:09.838Z,61
2018-07-20T01:39:35.407Z,61.1
2018-07-20T01:40:00.977Z,61
2018-07-20T01:40:26.543Z,61
2018-07-20T01:40:52.269Z,61.19
2018-07-20T01:41:17.845Z,61.39
2018-07-20T01:41:43.410Z,61.39
2018-07-20T01:42:08.997Z,61.29
2018-07-20T01:42:34.565Z,61.39
2018-07-20T01:43:00.138Z,61.19
2018-07-20T01:43:25.743Z,61.19
2018-07-20T01:43:51.315Z,61.29
2018-07-20T01:44:16.885Z,61.19
2018-07-20T01:44:42.459Z,61.29
2018-07-20T01:45:08.041Z,61.29
2018-07-20T01:45:33.626Z,61.19
2018-07-20T01:45:59.202Z,61.19
2018-07-20T01:46:24.775Z,61.29
2018-07-20T01:46:50.347Z,61.29
2018-07-20T01:47:15.918Z,61.29
2018-07-20T01:47:41.486Z,61.29
2018-07-20T01:48:07.053Z,61.39
2018-07-20T01:48:32.643Z,61.29
2018-07-20T01:48:58.215Z,61.29
2018-07-20T01:49:23.787Z,61.19
2018-07-20T01:49:49.367Z,61.29
2018-07-20T01:50:14.936Z,61.29
2018-07-20T01:50:40.512Z,61.29
2018-07-20T01:51:06.073Z,61.49
2018-07-20T01:51:31.638Z,61.49
2018-07-20T01:51:57.215Z,61.19
2018-07-20T01:52:22.824Z,61.49
2018-07-20T01:52:48.385Z,61.29
2018-07-20T01:53:13.952Z,61.29
2018-07-20T01:53:39.534Z,61.29
2018-07-20T01:54:05.157Z,61.29
2018-07-20T01:54:30.728Z,61.39
2018-07-20T01:54:56.301Z,61.1
2018-07-20T01:55:21.848Z,61.49
2018-07-20T01:55:47.444Z,61.29
2018-07-20T01:56:13.029Z,61.19
2018-07-20T01:56:38.596Z,61.19
2018-07-20T01:57:04.161Z,61.19
2018-07-20T01:57:29.737Z,61.1
2018-07-20T01:57:55.307Z,61.29
2018-07-20T01:58:20.887Z,61.19
2018-07-20T01:58:46.459Z,61
2018-07-20T01:59:12.047Z,61.29
2018-07-20T01:59:37.608Z,61.19
2018-07-20T02:00:03.172Z,61.29
2018-07-20T02:00:28.747Z,61.1
2018-07-20T02:00:54.295Z,61.29
2018-07-20T02:01:19.881Z,61
2018-07-20T02:01:45.467Z,61
2018-07-20T02:02:11.048Z,61
2018-07-20T02:02:36.615Z,60.91
2018-07-20T02:03:02.230Z,60.81
2018-07-20T02:03:27.764Z,60.81
2018-07-20T02:03:53.335Z,61.19
2018-07-20T02:04:18.896Z,61.19
2018-07-20T02:04:44.470Z,60.61
2018-07-20T02:05:10.058Z,61.19
2018-07-20T02:05:35.633Z,61.19
2018-07-20T02:06:01.197Z,61.19
2018-07-20T02:06:26.768Z,61.19
2018-07-20T02:06:52.317Z,61.39
2018-07-20T02:07:17.896Z,61.29
2018-07-20T02:07:43.490Z,60.91
2018-07-20T02:08:09.066Z,61.39
2018-07-20T02:08:34.627Z,61.29
2018-07-20T02:09:00.199Z,61.29
2018-07-20T02:09:25.764Z,61.39
2018-07-20T02:09:51.345Z,61.39
2018-07-20T02:10:16.903Z,61.29
2018-07-20T02:10:42.483Z,60.81
2018-07-20T02:11:08.041Z,60.61
2018-07-20T02:11:33.631Z,61.39
2018-07-20T02:11:59.201Z,61.19
2018-07-20T02:12:24.773Z,61.19
2018-07-20T02:12:50.355Z,61.39
2018-07-20T02:13:15.902Z,61.39
2018-07-20T02:13:41.473Z,61.39
2018-07-20T02:14:07.041Z,61.1
2018-07-20T02:14:32.637Z,61
2018-07-20T02:14:58.213Z,61.1
2018-07-20T02:15:23.788Z,61.29
2018-07-20T02:15:49.377Z,61.29
2018-07-20T02:16:14.910Z,60.81
2018-07-20T02:16:40.480Z,61.19
2018-07-20T02:17:06.039Z,61.1
2018-07-20T02:17:31.614Z,61.19
2018-07-20T02:17:57.183Z,60.81
2018-07-20T02:18:22.763Z,61.39
2018-07-20T02:18:48.335Z,61.29
2018-07-20T02:19:13.912Z,61.19
2018-07-20T02:19:39.479Z,61.1
2018-07-20T02:20:05.083Z,61.1
2018-07-20T02:20:30.667Z,61.1
2018-07-20T02:20:56.253Z,60.91
2018-07-20T02:21:21.829Z,60.81
2018-07-20T02:21:47.394Z,61
2018-07-20T02:22:12.974Z,61
2018-07-20T02:22:38.555Z,61.1
2018-07-20T02:23:04.109Z,61
2018-07-20T02:23:29.695Z,61.1
2018-07-20T02:23:55.267Z,61.1
2018-07-20T02:24:20.835Z,61.1
2018-07-20T02:24:46.402Z,61.1
2018-07-20T02:25:11.980Z,61.19
2018-07-20T02:25:37.537Z,61
2018-07-20T02:26:03.123Z,61
2018-07-20T02:26:28.693Z,61.19
2018-07-20T02:26:54.285Z,61.1
2018-07-20T02:27:19.837Z,61.19
2018-07-20T02:27:45.421Z,61.1
2018-07-20T02:28:11.003Z,61.1
2018-07-20T02:28:36.567Z,61.1
2018-07-20T02:29:02.141Z,60.71
2018-07-20T02:29:27.719Z,60.71
2018-07-20T02:29:53.281Z,60.71
2018-07-20T02:30:18.856Z,60.61
2018-07-20T02:30:44.414Z,60.61
2018-07-20T02:31:10.006Z,60.71
2018-07-20T02:31:35.589Z,60.91
2018-07-20T02:32:01.156Z,61
2018-07-20T02:32:26.730Z,60.71
2018-07-20T02:32:52.301Z,60.81
2018-07-20T02:33:17.887Z,60.71
2018-07-20T02:33:43.477Z,60.91
2018-07-20T02:34:09.042Z,60.81
2018-07-20T02:34:34.613Z,60.81
2018-07-20T02:35:00.203Z,60.81
2018-07-20T02:35:25.763Z,60.52
2018-07-20T02:35:51.337Z,60.52
2018-07-20T02:36:16.898Z,60.71
2018-07-20T02:36:42.479Z,60.52
2018-07-20T02:37:08.053Z,60.81
2018-07-20T02:37:33.621Z,60.91
2018-07-20T02:37:59.196Z,60.81
2018-07-20T02:38:24.768Z,60.91
2018-07-20T02:38:50.346Z,60.91
2018-07-20T02:39:15.917Z,60.81
2018-07-20T02:39:41.498Z,60.71
2018-07-20T02:40:07.079Z,60.91
2018-07-20T02:40:32.667Z,60.71
2018-07-20T02:40:58.251Z,60.71
2018-07-20T02:41:23.835Z,60.71
2018-07-20T02:41:49.419Z,60.71
2018-07-20T02:42:15.060Z,60.71
2018-07-20T02:42:40.625Z,60.81
2018-07-20T02:43:06.202Z,60.81
2018-07-20T02:43:31.775Z,60.52
2018-07-20T02:43:57.341Z,60.52
2018-07-20T02:44:22.916Z,60.42
2018-07-20T02:44:48.488Z,60.81
2018-07-20T02:45:14.067Z,60.61
2018-07-20T02:45:39.637Z,60.91
2018-07-20T02:46:05.224Z,61
2018-07-20T02:46:30.811Z,60.52
2018-07-20T02:46:56.394Z,60.91
2018-07-20T02:47:21.966Z,61
2018-07-20T02:47:47.547Z,60.91
2018-07-20T02:48:13.121Z,60.91
2018-07-20T02:48:38.701Z,60.91
2018-07-20T02:49:04.273Z,60.91
2018-07-20T02:49:29.876Z,60.81
2018-07-20T02:49:55.452Z,60.71
2018-07-20T02:50:21.022Z,60.52
2018-07-20T02:50:46.592Z,60.52
2018-07-20T02:51:12.171Z,60.81
2018-07-20T02:51:37.745Z,60.71
2018-07-20T02:52:03.321Z,60.91
2018-07-20T02:52:28.884Z,61
2018-07-20T02:52:54.458Z,60.91
2018-07-20T02:53:20.039Z,61
2018-07-20T02:53:45.608Z,61
2018-07-20T02:54:11.188Z,60.91
2018-07-20T02:54:36.753Z,60.91
2018-07-20T02:55:02.325Z,60.91
2018-07-20T02:55:27.913Z,61
2018-07-20T02:55:53.495Z,60.91
2018-07-20T02:56:19.073Z,60.91
2018-07-20T02:56:44.635Z,60.91
2018-07-20T02:57:10.193Z,61
2018-07-20T02:57:35.773Z,60.91
2018-07-20T02:58:01.331Z,61
2018-07-20T02:58:26.903Z,60.91
2018-07-20T02:58:52.472Z,60.81
2018-07-20T02:59:18.080Z,61
2018-07-20T02:59:43.677Z,60.91
2018-07-20T03:00:09.249Z,61
2018-07-20T03:00:34.833Z,60.71
2018-07-20T03:01:00.406Z,60.71
2018-07-20T03:01:25.990Z,60.91
2018-07-20T03:01:51.562Z,60.81
2018-07-20T03:02:17.130Z,60.91
2018-07-20T03:02:42.702Z,60.71
2018-07-20T03:03:08.283Z,61
2018-07-20T03:03:33.864Z,61.1
2018-07-20T03:03:59.442Z,60.81
2018-07-20T03:04:24.999Z,60.81
2018-07-20T03:04:50.577Z,60.71
2018-07-20T03:05:16.135Z,60.71
2018-07-20T03:05:41.726Z,60.71
2018-07-20T03:06:07.297Z,61.1
2018-07-20T03:06:32.889Z,61
2018-07-20T03:06:58.436Z,61
2018-07-20T03:07:24.013Z,60.91
2018-07-20T03:07:49.601Z,60.71
2018-07-20T03:08:15.187Z,60.81
2018-07-20T03:08:40.751Z,61.1
2018-07-20T03:09:06.442Z,61
2018-07-20T03:09:31.965Z,60.42
2018-07-20T03:09:57.523Z,60.42
2018-07-20T03:10:23.091Z,61
2018-07-20T03:10:48.675Z,60.52
2018-07-20T03:11:14.241Z,60.42
2018-07-20T03:11:39.824Z,60.91
2018-07-20T03:12:05.404Z,60.91
2018-07-20T03:12:31.032Z,61.1
2018-07-20T03:12:56.607Z,60.32
2018-07-20T03:13:22.171Z,60.52
2018-07-20T03:13:47.749Z,60.52
2018-07-20T03:14:13.307Z,60.52
2018-07-20T03:14:38.896Z,60.23
2018-07-20T03:15:04.463Z,60.42
2018-07-20T03:15:30.025Z,61.1
2018-07-20T03:15:55.607Z,61
2018-07-20T03:16:21.184Z,61
2018-07-20T03:16:46.751Z,60.42
2018-07-20T03:17:12.357Z,61
2018-07-20T03:17:37.932Z,60.81
2018-07-20T03:18:03.509Z,61.1
2018-07-20T03:18:29.086Z,60.91
2018-07-20T03:18:54.678Z,61
2018-07-20T03:19:20.250Z,61
2018-07-20T03:19:45.833Z,61
2018-07-20T03:20:11.397Z,60.42
2018-07-20T03:20:36.969Z,60.32
2018-07-20T03:21:02.581Z,60.32
2018-07-20T03:21:28.139Z,60.52
2018-07-20T03:21:53.715Z,60.52
2018-07-20T03:22:19.280Z,60.32
2018-07-20T03:22:44.847Z,60.13
2018-07-20T03:23:10.417Z,60.23
2018-07-20T03:23:35.999Z,60.13
2018-07-20T03:24:01.559Z,60.23
2018-07-20T03:24:27.134Z,60.32
2018-07-20T03:24:52.721Z,60.52
2018-07-20T03:25:18.289Z,60.13
2018-07-20T03:25:43.899Z,60.23
2018-07-20T03:26:09.462Z,60.23
2018-07-20T03:26:35.051Z,60.13
2018-07-20T03:27:00.617Z,60.13
2018-07-20T03:27:26.194Z,60.42
2018-07-20T03:27:51.759Z,60.52
2018-07-20T03:28:17.327Z,60.13
2018-07-20T03:28:42.897Z,60.32
2018-07-20T03:29:08.465Z,60.13
2018-07-20T03:29:34.033Z,60.13
2018-07-20T03:29:59.606Z,60.13
2018-07-20T03:30:25.175Z,60.13
2018-07-20T03:30:50.748Z,60.42
2018-07-20T03:31:16.335Z,60.42
2018-07-20T03:31:41.903Z,60.23
2018-07-20T03:32:07.469Z,60.13
2018-07-20T03:32:33.033Z,60.13
2018-07-20T03:32:58.629Z,60.13
2018-07-20T03:33:24.166Z,60.32
2018-07-20T03:33:49.740Z,60.13
2018-07-20T03:34:15.334Z,60.23
2018-07-20T03:34:40.907Z,60.52
2018-07-20T03:35:06.529Z,60.23
2018-07-20T03:35:32.095Z,60.32
2018-07-20T03:35:57.661Z,60.13
2018-07-20T03:36:23.235Z,60.42
2018-07-20T03:36:48.781Z,60.52
2018-07-20T03:37:14.348Z,60.32
2018-07-20T03:37:39.931Z,60.32
2018-07-20T03:38:05.503Z,60.03
2018-07-20T03:38:31.093Z,60.23
2018-07-20T03:38:56.652Z,60.03
2018-07-20T03:39:22.211Z,60.13
2018-07-20T03:39:47.782Z,60.42
2018-07-20T03:40:13.352Z,60.13
2018-07-20T03:40:38.929Z,60.03
2018-07-20T03:41:04.508Z,60.42
2018-07-20T03:41:30.079Z,60.61
2018-07-20T03:41:55.659Z,60.03
2018-07-20T03:42:21.245Z,60.52
2018-07-20T03:42:46.821Z,60.61
2018-07-20T03:43:12.457Z,60.03
2018-07-20T03:43:38.024Z,60.71
2018-07-20T03:44:03.612Z,60.42
2018-07-20T03:44:29.196Z,60.03
2018-07-20T03:44:54.761Z,60.61
2018-07-20T03:45:20.324Z,60.61
2018-07-20T03:45:45.919Z,60.52
2018-07-20T03:46:11.480Z,60.61
2018-07-20T03:46:37.067Z,60.52
2018-07-20T03:47:02.645Z,60.61
2018-07-20T03:47:28.208Z,60.61
2018-07-20T03:47:53.803Z,60.52
2018-07-20T03:48:19.389Z,60.03
2018-07-20T03:48:44.972Z,60.71
2018-07-20T03:49:10.543Z,60.71
2018-07-20T03:49:36.112Z,60.52
2018-07-20T03:50:01.691Z,60.42
2018-07-20T03:50:27.265Z,60.71
2018-07-20T03:50:52.823Z,60.52
2018-07-20T03:51:18.401Z,60.03
2018-07-20T03:51:43.993Z,60.61
2018-07-20T03:52:09.578Z,60.61
2018-07-20T03:52:35.133Z,60.52
2018-07-20T03:53:00.737Z,60.61
2018-07-20T03:53:26.317Z,60.71
2018-07-20T03:53:51.890Z,60.32
2018-07-20T03:54:17.483Z,60.52
2018-07-20T03:54:43.059Z,60.23
2018-07-20T03:55:08.621Z,60.23
2018-07-20T03:55:34.189Z,60.13
2018-07-20T03:55:59.776Z,60.42
2018-07-20T03:56:25.359Z,60.61
2018-07-20T03:56:50.940Z,60.52
2018-07-20T03:57:16.503Z,60.13
2018-07-20T03:57:42.077Z,60.32
2018-07-20T03:58:07.645Z,60.23
2018-07-20T03:58:33.233Z,60.23
2018-07-20T03:58:58.806Z,60.13
2018-07-20T03:59:24.379Z,60.13
2018-07-20T03:59:49.971Z,60.52
2018-07-20T04:00:15.520Z,60.32
2018-07-20T04:00:41.143Z,60.32
2018-07-20T04:01:06.647Z,60.13
2018-07-20T04:01:32.216Z,60.13
2018-07-20T04:01:57.819Z,60.13
2018-07-20T04:02:23.408Z,60.52
2018-07-20T04:02:48.962Z,60.32
2018-07-20T04:03:14.520Z,60.52
2018-07-20T04:03:40.104Z,60.23
2018-07-20T04:04:05.681Z,60.23
2018-07-20T04:04:31.249Z,60.13
2018-07-20T04:04:56.817Z,60.13
2018-07-20T04:05:22.402Z,60.23
2018-07-20T04:05:47.989Z,60.32
2018-07-20T04:06:13.573Z,60.13
2018-07-20T04:06:39.118Z,60.71
2018-07-20T04:07:04.699Z,60.61
2018-07-20T04:07:30.283Z,60.61
2018-07-20T04:07:55.841Z,60.52
2018-07-20T04:08:21.405Z,60.32
2018-07-20T04:08:46.983Z,60.13
2018-07-20T04:09:12.557Z,60.13
2018-07-20T04:09:38.115Z,60.32
2018-07-20T04:10:03.685Z,60.13
2018-07-20T04:10:29.268Z,60.13
2018-07-20T04:10:54.845Z,60.23
2018-07-20T04:11:20.415Z,60.32
2018-07-20T04:11:45.985Z,59.94
2018-07-20T04:12:11.573Z,60.23
2018-07-20T04:12:37.139Z,60.52
2018-07-20T04:13:02.709Z,60.52
2018-07-20T04:13:28.294Z,60.23
2018-07-20T04:13:53.861Z,59.94
2018-07-20T04:14:19.425Z,60.13
2018-07-20T04:14:45.012Z,60.23
2018-07-20T04:15:10.577Z,60.23
2018-07-20T04:15:36.157Z,60.13
2018-07-20T04:16:01.709Z,60.42
2018-07-20T04:16:27.274Z,60.13
2018-07-20T04:16:52.827Z,60.13
2018-07-20T04:17:18.387Z,60.32
2018-07-20T04:17:43.971Z,60.23
2018-07-20T04:18:09.564Z,60.13
2018-07-20T04:18:35.127Z,59.94
2018-07-20T04:19:00.708Z,59.94
2018-07-20T04:19:26.279Z,60.13
2018-07-20T04:19:51.864Z,59.94
2018-07-20T04:20:17.419Z,60.13
2018-07-20T04:20:42.973Z,60.03
2018-07-20T04:21:08.547Z,60.03
2018-07-20T04:21:34.125Z,60.23
2018-07-20T04:21:59.698Z,59.84
2018-07-20T04:22:25.269Z,60.03
2018-07-20T04:22:50.854Z,59.94
2018-07-20T04:23:16.494Z,60.13
2018-07-20T04:23:42.069Z,60.03
2018-07-20T04:24:07.639Z,59.94
2018-07-20T04:24:33.230Z,59.94
2018-07-20T04:24:58.810Z,59.84
2018-07-20T04:25:24.383Z,59.94
2018-07-20T04:25:49.980Z,59.84
2018-07-20T04:26:15.550Z,60.03
2018-07-20T04:26:41.127Z,59.94
2018-07-20T04:27:06.686Z,59.94
2018-07-20T04:27:32.245Z,59.94
2018-07-20T04:27:57.821Z,60.03
2018-07-20T04:28:23.402Z,59.84
2018-07-20T04:28:48.974Z,59.84
2018-07-20T04:29:14.533Z,60.03
2018-07-20T04:29:40.113Z,59.84
2018-07-20T04:30:05.701Z,59.94
2018-07-20T04:30:31.266Z,59.84
2018-07-20T04:30:56.845Z,59.94
2018-07-20T04:31:22.535Z,59.94
2018-07-20T04:31:48.106Z,59.84
2018-07-20T04:32:13.699Z,60.23
2018-07-20T04:32:39.270Z,60.13
2018-07-20T04:33:04.834Z,60.03
2018-07-20T04:33:30.428Z,60.03
2018-07-20T04:33:56.039Z,60.03
2018-07-20T04:34:21.609Z,60.13
2018-07-20T04:34:47.177Z,60.23
2018-07-20T04:35:12.746Z,60.13
2018-07-20T04:35:38.311Z,60.03
2018-07-20T04:36:03.884Z,60.03
2018-07-20T04:36:29.611Z,59.84
2018-07-20T04:36:55.017Z,59.84
2018-07-20T04:37:20.598Z,59.94
2018-07-20T04:37:46.186Z,59.84
2018-07-20T04:38:11.762Z,59.84
2018-07-20T04:38:37.336Z,59.74
2018-07-20T04:39:02.929Z,60.23
2018-07-20T04:39:28.508Z,60.23
2018-07-20T04:39:54.073Z,60.03
2018-07-20T04:40:19.637Z,60.23
2018-07-20T04:40:45.219Z,60.23
2018-07-20T04:41:10.793Z,60.13
2018-07-20T04:41:36.353Z,60.03
2018-07-20T04:42:01.924Z,60.03
2018-07-20T04:42:27.484Z,60.13
2018-07-20T04:42:53.062Z,60.03
2018-07-20T04:43:18.638Z,60.03
2018-07-20T04:43:44.218Z,60.03
2018-07-20T04:44:09.789Z,60.13
2018-07-20T04:44:35.407Z,60.23
2018-07-20T04:45:00.986Z,60.03
2018-07-20T04:45:26.557Z,60.13
2018-07-20T04:45:52.156Z,59.84
2018-07-20T04:46:17.735Z,60.03
2018-07-20T04:46:43.299Z,60.23
2018-07-20T04:47:08.873Z,60.03
2018-07-20T04:47:34.468Z,60.03
2018-07-20T04:48:00.038Z,59.64
2018-07-20T04:48:25.623Z,60.03
2018-07-20T04:48:51.196Z,60.03
2018-07-20T04:49:16.766Z,60.13
2018-07-20T04:49:42.360Z,60.03
2018-07-20T04:50:07.924Z,60.13
2018-07-20T04:50:33.502Z,60.03
2018-07-20T04:50:59.082Z,60.03
2018-07-20T04:51:24.674Z,60.03
2018-07-20T04:51:50.284Z,59.64
2018-07-20T04:52:15.818Z,59.55
2018-07-20T04:52:41.395Z,59.74
2018-07-20T04:53:06.954Z,59.74
2018-07-20T04:53:32.530Z,59.94
2018-07-20T04:53:58.106Z,60.03
2018-07-20T04:54:23.691Z,59.84
2018-07-20T04:54:49.280Z,59.84
2018-07-20T04:55:14.832Z,59.74
2018-07-20T04:55:40.406Z,60.03
2018-07-20T04:56:05.976Z,60.03
2018-07-20T04:56:31.554Z,59.64
2018-07-20T04:56:57.124Z,59.64
2018-07-20T04:57:22.684Z,59.55
2018-07-20T04:57:48.279Z,59.64
2018-07-20T04:58:13.844Z,60.03
2018-07-20T04:58:39.485Z,59.74
2018-07-20T04:59:05.000Z,59.94
2018-07-20T04:59:30.567Z,59.84
2018-07-20T04:59:56.149Z,59.84
2018-07-20T05:00:21.714Z,60.03
2018-07-20T05:00:47.307Z,59.94
2018-07-20T05:01:12.859Z,59.84
2018-07-20T05:01:38.450Z,59.84
2018-07-20T05:02:04.021Z,60.03
2018-07-20T05:02:29.595Z,59.84
2018-07-20T05:02:55.192Z,60.03
2018-07-20T05:03:20.779Z,59.64
2018-07-20T05:03:46.428Z,59.84
2018-07-20T05:04:11.934Z,59.55
2018-07-20T05:04:37.507Z,59.84
2018-07-20T05:05:03.079Z,59.64
2018-07-20T05:05:28.655Z,59.94
2018-07-20T05:05:54.267Z,59.94
2018-07-20T05:06:19.813Z,59.64
2018-07-20T05:06:45.395Z,59.74
2018-07-20T05:07:10.967Z,59.84
2018-07-20T05:07:36.535Z,59.64
2018-07-20T05:08:02.114Z,59.64
2018-07-20T05:08:27.698Z,59.64
2018-07-20T05:08:53.284Z,59.55
2018-07-20T05:09:18.857Z,59.84
2018-07-20T05:09:44.426Z,60.03
2018-07-20T05:10:10.008Z,59.64
2018-07-20T05:10:35.574Z,59.55
2018-07-20T05:11:01.174Z,59.45
2018-07-20T05:11:26.845Z,59.74
2018-07-20T05:11:52.334Z,60.03
2018-07-20T05:12:17.898Z,59.94
2018-07-20T05:12:43.483Z,59.64
2018-07-20T05:13:09.055Z,59.64
2018-07-20T05:13:34.700Z,59.94
2018-07-20T05:14:00.232Z,59.84
2018-07-20T05:14:25.809Z,59.84
2018-07-20T05:14:51.381Z,59.74
2018-07-20T05:15:16.976Z,59.74
2018-07-20T05:15:42.565Z,59.74
2018-07-20T05:16:08.144Z,59.64
2018-07-20T05:16:33.713Z,59.94
2018-07-20T05:16:59.293Z,59.84
2018-07-20T05:17:24.878Z,59.94
2018-07-20T05:17:50.458Z,59.84
2018-07-20T05:18:16.031Z,59.84
2018-07-20T05:18:41.608Z,59.94
2018-07-20T05:19:07.195Z,59.94
2018-07-20T05:19:32.779Z,59.84
2018-07-20T05:19:58.345Z,59.74
2018-07-20T05:20:23.951Z,59.74
2018-07-20T05:20:49.507Z,59.74
2018-07-20T05:21:15.080Z,59.64
2018-07-20T05:21:40.658Z,59.74
2018-07-20T05:22:06.224Z,59.64
2018-07-20T05:22:31.808Z,59.74
2018-07-20T05:22:57.372Z,59.64
2018-07-20T05:23:22.917Z,59.64
2018-07-20T05:23:48.484Z,59.84
2018-07-20T05:24:14.154Z,59.74
2018-07-20T05:24:39.633Z,59.84
2018-07-20T05:25:05.202Z,59.74
2018-07-20T05:25:30.770Z,59.74
2018-07-20T05:25:56.353Z,59.74
2018-07-20T05:26:21.930Z,59.74
2018-07-20T05:26:47.492Z,59.74
2018-07-20T05:27:13.070Z,59.64
2018-07-20T05:27:38.673Z,59.64
2018-07-20T05:28:04.282Z,59.64
2018-07-20T05:28:29.866Z,59.74
2018-07-20T05:28:55.443Z,59.74
2018-07-20T05:29:21.004Z,59.55
2018-07-20T05:29:46.582Z,59.74
2018-07-20T05:30:12.172Z,59.74
2018-07-20T05:30:37.747Z,59.84
2018-07-20T05:31:03.324Z,59.74
2018-07-20T05:31:28.908Z,59.64
2018-07-20T05:31:54.464Z,59.94
2018-07-20T05:32:20.035Z,59.84